Latest Coastal Weather Observations for Milingimbi

IDD60701

Issued at 9:31 am CST Thursday 19 September 2019 (issued every 10 minutes, with the page automatically refreshed every 10 minutes)

About coastal observations | Map of coastal stations | Coastal observations for NT | Marine services | Other Formats
Station Details ID: 014404 Name: MILINGIMBI AIRPORT Lat: -12.09 Lon: 134.89 Height: 15.0 m
Data from the previous 72 hours. | See also: Recent months at Milingimbi
Date/Time
CST
Wind Sea
Height
m
Swell Vis
km
Cloud Weather Temp
°C
Press
hPa
Rain since
9am
mm
Dir  Spd
kts
Gust
kts
Height
m
Period
s
Dir
19/09:30am E 7 14 - - - - - - - 25.4 1016.9 0.0
19/09:00am E 7 11 - - - - - - - 25.2 1016.7 0.0
19/08:30am E 6 10 - - - - - - - 24.7 1016.2 0.0
19/08:00am ENE 4 6 - - - - - - - 22.5 1015.8 0.0
19/07:30am CALM 0 0 - - - - - - - 20.2 1015.4 0.0
19/07:00am SSE 1 3 - - - - - - - 19.1 1015.0 0.0
19/06:30am SSE 1 4 - - - - - - - 17.4 1014.8 0.0
19/06:00am CALM 0 0 - - - - - - - 17.2 1014.4 0.0
19/05:30am CALM 0 0 - - - - - - - 17.3 1014.2 0.0
19/05:00am SSE 1 3 - - - - - - - 18.0 1014.1 0.0
19/04:30am CALM 0 0 - - - - - - - 18.6 1014.1 0.0
19/04:00am CALM 0 0 - - - - - - - 19.0 1013.9 0.0
19/03:30am SE 3 4 - - - - - - - 19.4 1014.0 0.0
19/03:00am SSE 3 4 - - - - - - - 19.9 1014.2 0.0
19/02:30am SE 4 5 - - - - - - - 20.3 1014.6 0.0
19/02:00am ESE 3 4 - - - - - - - 20.2 1014.7 0.0
19/01:30am CALM 0 0 - - - - - - - 20.6 1014.7 0.0
19/01:00am SE 2 4 - - - - - - - 21.3 1014.9 0.0
19/12:30am E 4 5 - - - - - - - 22.1 1015.1 0.0
19/12:00am ESE 3 5 - - - - - - - 22.1 1015.4 0.0
 
Date/Time
CST
Wind Sea
Height
m
Swell Vis
km
Cloud Weather Temp
°C
Press
hPa
Rain since
9am
mm
Dir  Spd
kts
Gust
kts
Height
m
Period
s
Dir
18/11:30pm ESE 3 4 - - - - - - - 22.2 1015.6 0.0
18/11:00pm ESE 3 4 - - - - - - - 21.9 1015.7 0.0
18/10:30pm E 3 4 - - - - - - - 21.7 1015.8 0.0
18/10:00pm CALM 0 0 - - - - - - - 22.1 1015.8 0.0
18/09:30pm CALM 0 0 - - - - - - - 22.7 1015.7 0.0
18/09:00pm NE 2 4 - - - - - - - 23.7 1015.5 0.0
18/08:30pm ENE 4 5 - - - - - - - 24.3 1015.3 0.0
18/08:00pm NE 5 7 - - - - - - - 24.8 1015.1 0.0
18/07:30pm NE 4 6 - - - - - - - 24.9 1015.0 0.0
18/07:00pm NNE 3 5 - - - - - - - 25.4 1014.7 0.0
18/06:30pm N 3 5 - - - - - - - 25.9 1014.5 0.0
18/06:00pm NNE 5 8 - - - - - - - 26.5 1014.4 0.0
18/05:30pm N 5 9 - - - - - - - 27.3 1014.2 0.0
18/05:00pm N 7 13 - - - - - - - 27.6 1013.9 0.0
18/04:30pm NNE 8 12 - - - - - - - 28.7 1013.8 0.0
18/04:00pm NNE 7 12 - - - - - - - 29.9 1013.9 0.0
18/03:30pm NE 8 13 - - - - - - - 30.5 1014.0 0.0
18/03:00pm NE 9 14 - - - - - - - 30.5 1014.3 0.0
18/02:30pm ENE 9 15 - - - - - - - 30.2 1014.8 0.0
18/02:00pm ENE 8 13 - - - - - - - 30.5 1015.1 0.0
18/01:30pm ENE 9 16 - - - - - - - 29.2 1015.6 0.0
18/01:00pm ENE 10 16 - - - - - - - 29.7 1016.0 0.0
18/12:30pm ENE 9 15 - - - - - - - 29.0 1016.5 0.0
18/12:00pm NE 8 15 - - - - - - - 28.0 1016.9 0.0
18/11:30am ENE 8 14 - - - - - - - 28.1 1017.2 0.0
18/11:00am ENE 8 14 - - - - - - - 27.6 1017.6 0.0
18/10:30am E 8 15 - - - - - - - 27.1 1017.9 0.0
18/10:00am E 7 11 - - - - - - - 26.4 1018.0 0.0
18/09:30am ESE 6 11 - - - - - - - 27.4 1018.0 0.0
18/09:00am E 4 6 - - - - - - - 25.4 1017.7 0.0
18/08:30am E 3 6 - - - - - - - 24.3 1017.5 0.0
18/08:00am S 1 5 - - - - - - - 21.8 1017.3 0.0
18/07:30am CALM 0 0 - - - - - - - 19.8 1017.1 0.0
18/07:00am CALM 0 0 - - - - - - - 18.1 1016.5 0.0
18/06:30am SSW 3 4 - - - - - - - 17.3 1016.4 0.0
18/06:00am WSW 1 4 - - - - - - - 17.2 1016.0 0.0
18/05:30am E 1 3 - - - - - - - 17.3 1015.7 0.0
18/05:00am ENE 4 6 - - - - - - - 17.8 1015.0 0.0
18/04:30am SE 2 4 - - - - - - - 18.0 1015.1 0.0
18/04:00am SSE 3 4 - - - - - - - 18.9 1014.9 0.0
18/03:30am SSE 4 5 - - - - - - - 19.4 1015.0 0.0
18/03:00am SSE 4 6 - - - - - - - 20.4 1015.2 0.0
18/02:30am SE 6 8 - - - - - - - 20.8 1015.3 0.0
18/02:00am SE 5 7 - - - - - - - 21.1 1015.5 0.0
18/01:30am SE 6 9 - - - - - - - 21.8 1015.4 0.0
18/01:00am SE 5 7 - - - - - - - 22.7 1015.5 0.0
18/12:30am ESE 6 9 - - - - - - - 23.3 1015.8 0.0
18/12:00am E 6 9 - - - - - - - 23.8 1016.0 0.0
 
Date/Time
CST
Wind Sea
Height
m
Swell Vis
km
Cloud Weather Temp
°C
Press
hPa
Rain since
9am
mm
Dir  Spd
kts
Gust
kts
Height
m
Period
s
Dir
17/11:30pm ESE 7 10 - - - - - - - 24.1 1016.3 0.0
17/11:00pm ESE 6 10 - - - - - - - 24.1 1016.2 0.0
17/10:30pm E 6 9 - - - - - - - 24.4 1016.4 0.0
17/10:00pm E 5 10 - - - - - - - 24.5 1016.3 0.0
17/09:30pm E 6 10 - - - - - - - 24.7 1016.1 0.0
17/09:00pm E 6 9 - - - - - - - 24.8 1016.0 0.0
17/08:30pm ENE 7 14 - - - - - - - 25.1 1015.7 0.0
17/08:00pm ENE 7 11 - - - - - - - 25.2 1015.4 0.0
17/07:30pm NE 7 13 - - - - - - - 25.4 1015.1 0.0
17/07:00pm NE 7 12 - - - - - - - 25.6 1014.8 0.0
17/06:30pm NE 5 9 - - - - - - - 25.9 1014.5 0.0
17/06:00pm NE 7 12 - - - - - - - 26.5 1014.2 0.0
17/05:30pm NE 6 12 - - - - - - - 27.1 1013.9 0.0
17/05:00pm NNE 7 12 - - - - - - - 27.8 1013.6 0.0
17/04:30pm NNE 7 14 - - - - - - - 28.9 1013.6 0.0
17/04:00pm NNE 8 12 - - - - - - - 29.1 1013.5 0.0
17/03:30pm NE 8 13 - - - - - - - 30.3 1013.6 0.0
17/03:00pm ENE 9 15 - - - - - - - 30.0 1014.0 0.0
17/02:30pm ENE 10 16 - - - - - - - 29.4 1014.5 0.0
17/02:00pm ENE 8 14 - - - - - - - 29.7 1015.0 0.0
17/01:30pm ENE 6 11 - - - - - - - 30.6 1015.3 0.0
17/01:00pm ENE 8 13 - - - - - - - 29.2 1015.6 0.0
17/12:30pm ESE 9 15 - - - - - - - 31.6 1016.1 0.0
17/12:00pm ESE 10 15 - - - - - - - 29.9 1016.6 0.0
17/11:30am ESE 9 14 - - - - - - - 29.2 1017.0 0.0
17/11:00am ESE 11 14 - - - - - - - 29.2 1017.3 0.0
17/10:30am ESE 9 14 - - - - - - - 28.6 1017.6 0.0
17/10:00am ESE 7 13 - - - - - - - 28.7 1017.6 0.0
17/09:30am ESE 9 14 - - - - - - - 27.0 1017.7 0.0
17/09:00am SE 7 11 - - - - - - - 25.3 1017.7 0.0
17/08:30am SE 8 12 - - - - - - - 24.3 1017.6 0.0
17/08:00am SE 8 12 - - - - - - - 22.7 1017.1 0.0
17/07:30am SE 6 10 - - - - - - - 20.9 1016.9 0.0
17/07:00am SSE 4 6 - - - - - - - 19.5 1016.4 0.0
17/06:30am SSE 4 6 - - - - - - - 19.2 1015.9 0.0
17/06:00am SSE 5 7 - - - - - - - 19.4 1015.6 0.0
17/05:30am SE 5 8 - - - - - - - 19.5 1015.3 0.0
17/05:00am SSE 5 6 - - - - - - - 19.8 1014.9 0.0
17/04:30am SE 5 8 - - - - - - - 20.5 1014.7 0.0
17/04:00am ESE 7 10 - - - - - - - 21.1 1014.6 0.0
17/03:30am ESE 7 13 - - - - - - - 21.5 1014.4 0.0
17/03:00am ESE 8 13 - - - - - - - 21.7 1014.4 0.0
17/02:30am ESE 8 12 - - - - - - - 21.8 1014.4 0.0
17/02:00am ESE 6 9 - - - - - - - 21.8 1014.4 0.0
17/01:30am ESE 6 10 - - - - - - - 22.5 1014.7 0.0
17/01:00am ESE 7 13 - - - - - - - 22.8 1014.8 0.0
17/12:30am ESE 5 9 - - - - - - - 22.9 1014.9 0.0
17/12:00am ESE 6 8 - - - - - - - 23.4 1015.1 0.0
 
Date/Time
CST
Wind Sea
Height
m
Swell Vis
km
Cloud Weather Temp
°C
Press
hPa
Rain since
9am
mm
Dir  Spd
kts
Gust
kts
Height
m
Period
s
Dir
16/11:30pm ESE 7 11 - - - - - - - 23.9 1015.2 0.0
16/11:00pm E 6 9 - - - - - - - 24.1 1015.3 0.0
16/10:30pm E 5 8 - - - - - - - 24.2 1015.4 0.0
16/10:00pm E 6 11 - - - - - - - 24.4 1015.4 0.0
16/09:30pm ENE 6 9 - - - - - - - 24.7 1015.4 0.0
16/09:00pm ENE 6 13 - - - - - - - 24.9 1015.3 0.0
16/08:30pm NE 8 13 - - - - - - - 24.8 1014.9 0.0
16/08:00pm ENE 7 12 - - - - - - - 25.0 1014.6 0.0
16/07:30pm ENE 8 15 - - - - - - - 25.2 1014.2 0.0
16/07:00pm NE 7 12 - - - - - - - 25.3 1013.9 0.0
16/06:30pm NE 8 14 - - - - - - - 25.6 1013.6 0.0
16/06:00pm NNE 7 13 - - - - - - - 26.1 1013.3 0.0
16/05:30pm NNE 7 12 - - - - - - - 26.7 1013.2 0.0
16/05:00pm NNE 8 12 - - - - - - - 27.5 1013.1 0.0
16/04:30pm N 8 13 - - - - - - - 28.0 1012.9 0.0
16/04:00pm NE 7 13 - - - - - - - 29.1 1012.9 0.0
16/03:30pm ENE 9 14 - - - - - - - 29.7 1013.1 0.0
16/03:00pm ENE 10 14 - - - - - - - 29.4 1013.3 0.0
16/02:30pm ENE 9 14 - - - - - - - 29.1 1013.5 0.0
16/02:00pm ENE 7 13 - - - - - - - 30.1 1014.0 0.0
16/01:30pm ENE 8 13 - - - - - - - 29.0 1014.5 0.0
16/01:00pm ENE 8 13 - - - - - - - 29.3 1015.1 0.0
16/12:30pm ESE 8 12 - - - - - - - 29.9 1015.5 0.0
16/12:00pm E 8 13 - - - - - - - 29.0 1015.9 0.0
16/11:30am ESE 8 14 - - - - - - - 28.7 1016.4 0.0
16/11:00am ESE 8 13 - - - - - - - 28.3 1016.9 0.0
16/10:30am E 10 14 - - - - - - - 27.1 1017.2 0.0
16/10:00am ESE 7 14 - - - - - - - 27.0 1017.3 0.0

Other formats

Comma delimited format used in spreadsheet applications
http://www.bom.gov.au/fwo/IDD60701/IDD60701.94140.axf

JavaScript Object Notation format (JSON) in row-major order
http://www.bom.gov.au/fwo/IDD60701/IDD60701.94140.json

Data quality

Most of these data are generated automatically and are frequently updated. Quality checks on data are not normally performed. It is possible for incorrect values to appear. Refer to information at About Latest Weather Observations and please check the disclaimer before using these data.